MAS724 WIII-WMKK
Flight info
| Callsign | MAS724 |
|---|---|
| Flight time | N/A |
| Altitude | 38000 |
| Route | DOLTA T25 GUSKO A585 PLB G579 VJB A457 GUPTA GUPTA1H |
| Aircraft | A333/H-SDE3GHIJ2J3J5M1RVWXY/LB2D1 |
Departure
| Time | 2026-04-30 13:06 |
|---|---|
| Airport | Soekarno-Hatta International Airport (WIII) |
Arrival
| Time | N/A |
|---|---|
| Airport | Kuala Lumpur International Airport (WMKK) |
| Time | Latitude | Longitude | Altitude | Speed | Heading |
|---|---|---|---|---|---|
| 2026-04-30 12:25 | -6.11808 | 106.65963 | 51 ft | 0 kts | 248° |
| 2026-04-30 12:56 | -6.11805 | 106.65970 | 52 ft | 0 kts | 251° |
| 2026-04-30 12:57 | -6.11801 | 106.65982 | 52 ft | 0 kts | 248° |
| 2026-04-30 12:57 | -6.11796 | 106.65995 | 52 ft | 0 kts | 249° |
| 2026-04-30 12:57 | -6.11791 | 106.66007 | 52 ft | 0 kts | 255° |
| 2026-04-30 12:57 | -6.11791 | 106.66029 | 52 ft | 0 kts | 277° |
| 2026-04-30 12:58 | -6.11794 | 106.66056 | 52 ft | 0 kts | 269° |
| 2026-04-30 12:58 | -6.11791 | 106.66072 | 52 ft | 0 kts | 251° |
| 2026-04-30 12:59 | -6.11791 | 106.66071 | 52 ft | 1 kts | 251° |
| 2026-04-30 12:59 | -6.11796 | 106.66052 | 52 ft | 4 kts | 260° |
| 2026-04-30 13:00 | -6.11784 | 106.66015 | 52 ft | 7 kts | 315° |
| 2026-04-30 13:00 | -6.11728 | 106.65990 | 52 ft | 10 kts | 338° |
| 2026-04-30 13:00 | -6.11648 | 106.65959 | 52 ft | 10 kts | 337° |
| 2026-04-30 13:00 | -6.11642 | 106.65957 | 52 ft | 0 kts | 336° |
| 2026-04-30 13:01 | -6.11631 | 106.65952 | 52 ft | 3 kts | 338° |
| 2026-04-30 13:01 | -6.11598 | 106.65937 | 52 ft | 6 kts | 334° |
| 2026-04-30 13:01 | -6.11546 | 106.65910 | 52 ft | 10 kts | 326° |
| 2026-04-30 13:01 | -6.11519 | 106.65839 | 52 ft | 13 kts | 258° |
| 2026-04-30 13:02 | -6.11554 | 106.65743 | 52 ft | 16 kts | 248° |
| 2026-04-30 13:02 | -6.11601 | 106.65630 | 52 ft | 19 kts | 248° |
| 2026-04-30 13:02 | -6.11652 | 106.65499 | 52 ft | 22 kts | 248° |
| 2026-04-30 13:02 | -6.11713 | 106.65344 | 52 ft | 26 kts | 248° |
| 2026-04-30 13:03 | -6.11780 | 106.65177 | 52 ft | 27 kts | 248° |
| 2026-04-30 13:03 | -6.11837 | 106.65037 | 52 ft | 27 kts | 248° |
| 2026-04-30 13:03 | -6.11909 | 106.64860 | 52 ft | 26 kts | 247° |
| 2026-04-30 13:03 | -6.11974 | 106.64693 | 52 ft | 25 kts | 249° |
| 2026-04-30 13:04 | -6.12039 | 106.64530 | 52 ft | 24 kts | 248° |
| 2026-04-30 13:04 | -6.12096 | 106.64386 | 52 ft | 21 kts | 248° |
| 2026-04-30 13:04 | -6.12152 | 106.64245 | 52 ft | 21 kts | 248° |
| 2026-04-30 13:04 | -6.12205 | 106.64111 | 52 ft | 20 kts | 249° |
| 2026-04-30 13:05 | -6.12247 | 106.63994 | 52 ft | 15 kts | 254° |
| 2026-04-30 13:05 | -6.12228 | 106.63897 | 52 ft | 14 kts | 319° |
| 2026-04-30 13:05 | -6.12138 | 106.63900 | 52 ft | 13 kts | 31° |
| 2026-04-30 13:06 | -6.12023 | 106.64080 | 52 ft | 37 kts | 68° |
| 2026-04-30 13:06 | -6.11829 | 106.64569 | 52 ft | 109 kts | 68° |
| 2026-04-30 13:06 | -6.11476 | 106.65462 | 63 ft | 164 kts | 71° |
| 2026-04-30 13:06 | -6.11046 | 106.66515 | 717 ft | 161 kts | 68° |
| 2026-04-30 13:07 | -6.10549 | 106.67515 | 1362 ft | 165 kts | 52° |
| 2026-04-30 13:07 | -6.09631 | 106.68153 | 2105 ft | 162 kts | 28° |
| 2026-04-30 13:07 | -6.08691 | 106.68707 | 2655 ft | 154 kts | 33° |
| 2026-04-30 13:07 | -6.07743 | 106.69309 | 2826 ft | 174 kts | 34° |
| 2026-04-30 13:08 | -6.06682 | 106.69997 | 3178 ft | 183 kts | 34° |
| 2026-04-30 13:08 | -6.05611 | 106.70699 | 3588 ft | 189 kts | 34° |
| 2026-04-30 13:08 | -6.04457 | 106.71460 | 3870 ft | 210 kts | 35° |
| 2026-04-30 13:08 | -6.03166 | 106.72311 | 4187 ft | 231 kts | 34° |
| 2026-04-30 13:09 | -6.01809 | 106.73209 | 4875 ft | 234 kts | 33° |
| 2026-04-30 13:09 | -6.00452 | 106.74103 | 5615 ft | 235 kts | 33° |
| 2026-04-30 13:09 | -5.99050 | 106.74950 | 6373 ft | 235 kts | 21° |
| 2026-04-30 13:09 | -5.97436 | 106.75118 | 7036 ft | 239 kts | 349° |
| 2026-04-30 13:10 | -5.95949 | 106.74385 | 7717 ft | 243 kts | 317° |
| 2026-04-30 13:10 | -5.95044 | 106.72971 | 8371 ft | 245 kts | 290° |
| 2026-04-30 13:10 | -5.94428 | 106.71404 | 9057 ft | 245 kts | 295° |
| 2026-04-30 13:10 | -5.93741 | 106.69874 | 9699 ft | 244 kts | 295° |
| 2026-04-30 13:11 | -5.93079 | 106.68427 | 10297 ft | 244 kts | 296° |
| 2026-04-30 13:11 | -5.92358 | 106.66869 | 10906 ft | 245 kts | 296° |
| 2026-04-30 13:11 | -5.91654 | 106.65349 | 11495 ft | 246 kts | 296° |
| 2026-04-30 13:11 | -5.90933 | 106.63795 | 12081 ft | 247 kts | 296° |
| 2026-04-30 13:12 | -5.90222 | 106.62263 | 12648 ft | 248 kts | 296° |
| 2026-04-30 13:12 | -5.89487 | 106.60682 | 13209 ft | 249 kts | 296° |
| 2026-04-30 13:12 | -5.88761 | 106.59126 | 13736 ft | 250 kts | 296° |
| 2026-04-30 13:13 | -5.87196 | 106.55772 | 14899 ft | 277 kts | 296° |
| 2026-04-30 13:13 | -5.86392 | 106.54044 | 15741 ft | 280 kts | 297° |
| 2026-04-30 13:13 | -5.84609 | 106.50226 | 16228 ft | 338 kts | 296° |
| 2026-04-30 13:14 | -5.83916 | 106.48740 | 16292 ft | 361 kts | 296° |
| 2026-04-30 13:14 | -5.82499 | 106.45700 | 16491 ft | 400 kts | 296° |
| 2026-04-30 13:14 | -5.79957 | 106.40492 | 18316 ft | 410 kts | 301° |
| 2026-04-30 13:15 | -5.78339 | 106.38153 | 19041 ft | 415 kts | 315° |
| 2026-04-30 13:15 | -5.73465 | 106.35181 | 20468 ft | 408 kts | 334° |
| 2026-04-30 13:15 | -5.71854 | 106.34261 | 21219 ft | 400 kts | 332° |
| 2026-04-30 13:16 | -5.68872 | 106.32536 | 23068 ft | 375 kts | 332° |
| 2026-04-30 13:16 | -5.66624 | 106.31201 | 23814 ft | 375 kts | 331° |
| 2026-04-30 13:16 | -5.64496 | 106.29934 | 23735 ft | 399 kts | 331° |
| 2026-04-30 13:17 | -5.59389 | 106.26882 | 24551 ft | 420 kts | 331° |
| 2026-04-30 13:17 | -5.56911 | 106.25400 | 25261 ft | 416 kts | 331° |
| 2026-04-30 13:17 | -5.52777 | 106.22930 | 25518 ft | 427 kts | 331° |
| 2026-04-30 13:18 | -5.49312 | 106.20860 | 25962 ft | 429 kts | 331° |
| 2026-04-30 13:18 | -5.44165 | 106.17786 | 26620 ft | 432 kts | 331° |
| 2026-04-30 13:18 | -5.41725 | 106.16326 | 26886 ft | 434 kts | 331° |
| 2026-04-30 13:19 | -5.39300 | 106.14880 | 27156 ft | 436 kts | 331° |
| 2026-04-30 13:19 | -5.37020 | 106.13518 | 27412 ft | 437 kts | 331° |
| 2026-04-30 13:19 | -5.35227 | 106.12447 | 27623 ft | 438 kts | 331° |
| 2026-04-30 13:19 | -5.31722 | 106.10355 | 28027 ft | 440 kts | 331° |
| 2026-04-30 13:20 | -5.29046 | 106.08756 | 28321 ft | 442 kts | 331° |
| 2026-04-30 13:20 | -5.27262 | 106.07690 | 28510 ft | 443 kts | 331° |
| 2026-04-30 13:20 | -5.24600 | 106.06101 | 28754 ft | 446 kts | 331° |
| 2026-04-30 13:20 | -5.21979 | 106.04538 | 29034 ft | 448 kts | 331° |
| 2026-04-30 13:21 | -5.18423 | 106.02415 | 29385 ft | 451 kts | 331° |
| 2026-04-30 13:21 | -5.15757 | 106.00825 | 29639 ft | 454 kts | 331° |
| 2026-04-30 13:21 | -5.13014 | 105.99187 | 29938 ft | 455 kts | 331° |
| 2026-04-30 13:22 | -5.07579 | 105.95946 | 30475 ft | 459 kts | 332° |
| 2026-04-30 13:22 | -5.05749 | 105.94852 | 30659 ft | 460 kts | 332° |
| 2026-04-30 13:22 | -4.99324 | 105.91022 | 31310 ft | 463 kts | 332° |
| 2026-04-30 13:23 | -4.97440 | 105.89899 | 31475 ft | 464 kts | 332° |
| 2026-04-30 13:23 | -4.91940 | 105.86620 | 31929 ft | 468 kts | 332° |
| 2026-04-30 13:24 | -4.85633 | 105.82861 | 32422 ft | 473 kts | 332° |
| 2026-04-30 13:24 | -4.81001 | 105.80099 | 32801 ft | 475 kts | 332° |
| 2026-04-30 13:25 | -4.74545 | 105.76253 | 33270 ft | 479 kts | 332° |
| 2026-04-30 13:25 | -4.68931 | 105.72908 | 33621 ft | 482 kts | 332° |
| 2026-04-30 13:26 | -4.60516 | 105.67896 | 34111 ft | 486 kts | 331° |
| 2026-04-30 13:26 | -4.55611 | 105.64975 | 34388 ft | 487 kts | 331° |
| 2026-04-30 13:27 | -4.48778 | 105.60906 | 34659 ft | 490 kts | 331° |
| 2026-04-30 13:28 | -4.40014 | 105.55690 | 35005 ft | 493 kts | 331° |
| 2026-04-30 13:28 | -4.34453 | 105.52380 | 35970 ft | 481 kts | 331° |
| 2026-04-30 13:28 | -4.31705 | 105.50745 | 36205 ft | 480 kts | 331° |
| 2026-04-30 13:29 | -4.26144 | 105.47437 | 36990 ft | 474 kts | 331° |
| 2026-04-30 13:29 | -4.20525 | 105.44094 | 37172 ft | 479 kts | 331° |
| 2026-04-30 13:30 | -4.11992 | 105.39019 | 37845 ft | 478 kts | 331° |
| 2026-04-30 13:31 | -4.06265 | 105.35615 | 37895 ft | 481 kts | 331° |
| 2026-04-30 13:32 | -3.92838 | 105.27633 | 37894 ft | 482 kts | 331° |
| 2026-04-30 13:33 | -3.80818 | 105.20490 | 37904 ft | 484 kts | 331° |
| 2026-04-30 13:34 | -3.73118 | 105.15916 | 37908 ft | 491 kts | 331° |
| 2026-04-30 13:35 | -3.60295 | 105.08301 | 37905 ft | 494 kts | 331° |
| 2026-04-30 13:36 | -3.48350 | 105.01210 | 37883 ft | 498 kts | 331° |
| 2026-04-30 13:36 | -3.40869 | 104.96769 | 37886 ft | 499 kts | 332° |